Time;durP1;ratioP1;P1;durP2;ratioP2;P2;SDS_P1;SDS_P2;PMS_P1;PMS_P2;Temp;Humidity;BMP_temperature;BMP_pressure;BME280_temperature;BME280_humidity;BME280_pressure;Samples;Min_cycle;Max_cycle;Signal;HPM_P1;HPM_P2
2023/12/05 00:00:20;;;;;;;6.57;4.17;;;;;;;;;;4985535;28;92060;-77
2023/12/05 00:02:49;;;;;;;8.27;4.10;;;;;;;;;;4984240;28;92118;-77
2023/12/05 00:05:18;;;;;;;6.47;4.53;;;;;;;;;;4988398;28;94451;-79
2023/12/05 00:07:47;;;;;;;8.83;5.10;;;;;;;;;;4986809;28;93141;-79
2023/12/05 00:10:17;;;;;;;5.73;4.13;;;;;;;;;;4982716;28;93229;-77
2023/12/05 00:12:45;;;;;;;7.70;4.60;;;;;;;;;;4975246;28;91401;-74
2023/12/05 00:15:14;;;;;;;8.17;4.93;;;;;;;;;;4988668;28;93836;-77
2023/12/05 00:17:43;;;;;;;6.70;4.70;;;;;;;;;;4987907;28;95355;-74
2023/12/05 00:20:12;;;;;;;6.17;4.67;;;;;;;;;;4990601;28;93058;-77
2023/12/05 00:22:44;;;;;;;6.83;4.50;;;;;;;;;;4989019;28;92156;-75
2023/12/05 00:25:13;;;;;;;6.03;4.90;;;;;;;;;;4985614;28;93859;-75
2023/12/05 00:27:42;;;;;;;8.13;4.67;;;;;;;;;;4981035;28;93664;-76
2023/12/05 00:30:11;;;;;;;9.10;4.70;;;;;;;;;;4985566;28;91792;-76
2023/12/05 00:32:39;;;;;;;6.80;4.20;;;;;;;;;;4987413;28;92201;-76
2023/12/05 00:35:08;;;;;;;8.03;4.80;;;;;;;;;;4986993;28;94344;-77
2023/12/05 00:37:37;;;;;;;8.07;4.87;;;;;;;;;;4986837;28;93676;-76
2023/12/05 00:40:08;;;;;;;7.53;4.40;;;;;;;;;;4989645;28;92008;-76
2023/12/05 00:42:36;;;;;;;6.10;4.27;;;;;;;;;;4980776;28;92058;-76
2023/12/05 00:45:05;;;;;;;6.53;4.43;;;;;;;;;;4979798;28;95204;-74
2023/12/05 00:47:34;;;;;;;5.60;3.97;;;;;;;;;;4984738;28;94580;-73
2023/12/05 00:50:03;;;;;;;7.37;4.80;;;;;;;;;;4986466;28;93510;-74
2023/12/05 00:52:34;;;;;;;5.93;4.77;;;;;;;;;;4987367;28;92028;-73
2023/12/05 00:55:03;;;;;;;7.67;3.67;;;;;;;;;;4980956;28;94420;-74
2023/12/05 00:57:33;;;;;;;5.23;3.67;;;;;;;;;;4984754;28;93909;-73
2023/12/05 01:00:01;;;;;;;5.27;4.27;;;;;;;;;;4985529;28;91817;-74
2023/12/05 01:02:30;;;;;;;6.87;3.93;;;;;;;;;;4987392;28;91293;-74
2023/12/05 01:04:58;;;;;;;8.70;4.47;;;;;;;;;;4977052;28;94485;-73
2023/12/05 01:07:27;;;;;;;4.33;3.83;;;;;;;;;;4985444;28;93959;-74
2023/12/05 01:09:57;;;;;;;6.73;4.47;;;;;;;;;;4983724;28;93023;-73
2023/12/05 01:12:26;;;;;;;5.37;3.90;;;;;;;;;;4986474;28;91926;-76
2023/12/05 01:14:55;;;;;;;4.87;3.70;;;;;;;;;;4987069;28;92866;-77
2023/12/05 01:17:25;;;;;;;5.33;3.97;;;;;;;;;;4985519;28;93913;-78
2023/12/05 01:19:54;;;;;;;5.63;3.97;;;;;;;;;;4984021;28;92423;-77
2023/12/05 01:22:22;;;;;;;4.93;3.33;;;;;;;;;;4985140;28;92091;-77
2023/12/05 01:24:54;;;;;;;5.93;4.20;;;;;;;;;;4984616;28;94132;-77
2023/12/05 01:27:25;;;;;;;4.47;3.73;;;;;;;;;;4979427;28;92851;-77
2023/12/05 01:30:00;;;;;;;5.23;3.57;;;;;;;;;;4982487;28;92115;-77
2023/12/05 01:32:29;;;;;;;4.97;3.60;;;;;;;;;;4985841;28;91950;-77
2023/12/05 01:34:58;;;;;;;4.53;3.47;;;;;;;;;;4965754;28;95203;-77
2023/12/05 01:37:28;;;;;;;3.90;3.20;;;;;;;;;;4967763;28;94791;-77
2023/12/05 01:39:57;;;;;;;4.70;3.30;;;;;;;;;;4967458;28;92607;-78
2023/12/05 01:42:25;;;;;;;5.53;3.03;;;;;;;;;;4965080;28;92112;-74
2023/12/05 01:44:55;;;;;;;4.07;2.80;;;;;;;;;;4967735;28;94241;-73
2023/12/05 01:47:25;;;;;;;5.27;3.67;;;;;;;;;;4962719;28;93782;-75
2023/12/05 01:49:54;;;;;;;4.17;3.10;;;;;;;;;;4966944;28;92224;-75
2023/12/05 01:52:23;;;;;;;4.03;3.03;;;;;;;;;;4961330;28;91314;-75
2023/12/05 01:54:52;;;;;;;6.60;2.77;;;;;;;;;;4967267;28;94470;-76
2023/12/05 01:57:23;;;;;;;5.30;3.53;;;;;;;;;;4970812;28;93826;-76
2023/12/05 01:59:52;;;;;;;3.87;2.90;;;;;;;;;;4970672;28;92982;-76
2023/12/05 02:02:21;;;;;;;3.20;2.80;;;;;;;;;;4960674;28;92398;-76
2023/12/05 02:04:51;;;;;;;2.87;2.30;;;;;;;;;;4961218;28;94079;-78
2023/12/05 02:07:20;;;;;;;4.07;2.77;;;;;;;;;;4960817;28;93860;-77
2023/12/05 02:09:49;;;;;;;3.57;2.97;;;;;;;;;;4964084;28;92065;-71
2023/12/05 02:12:19;;;;;;;3.37;2.53;;;;;;;;;;4969076;28;92130;-80
2023/12/05 02:14:47;;;;;;;3.40;2.47;;;;;;;;;;4959297;28;94241;-81
2023/12/05 02:17:16;;;;;;;6.63;2.43;;;;;;;;;;4952657;28;94553;-81
2023/12/05 02:19:54;;;;;;;3.23;2.40;;;;;;;;;;4971817;28;91956;-77
2023/12/05 02:22:29;;;;;;;2.67;2.23;;;;;;;;;;4979901;28;92352;-77
2023/12/05 02:25:01;;;;;;;3.87;2.70;;;;;;;;;;4970775;28;95144;-78
2023/12/05 02:27:37;;;;;;;3.00;2.23;;;;;;;;;;4961373;28;94867;-77
2023/12/05 02:30:06;;;;;;;2.70;2.37;;;;;;;;;;4955655;28;92028;-77
2023/12/05 02:32:35;;;;;;;4.17;3.03;;;;;;;;;;4960146;28;92057;-77
2023/12/05 02:35:05;;;;;;;2.57;2.27;;;;;;;;;;4982936;28;93034;-77
2023/12/05 02:37:34;;;;;;;3.03;2.00;;;;;;;;;;4984704;28;93713;-77
2023/12/05 02:40:07;;;;;;;4.27;2.50;;;;;;;;;;5003676;28;91959;-76
2023/12/05 02:42:36;;;;;;;2.93;2.40;;;;;;;;;;5004617;28;91164;-77
2023/12/05 02:45:07;;;;;;;3.17;1.87;;;;;;;;;;4999894;28;93150;-77
2023/12/05 02:47:35;;;;;;;2.10;1.67;;;;;;;;;;4987341;28;94018;-77
2023/12/05 02:50:03;;;;;;;3.00;1.90;;;;;;;;;;4983572;28;93230;-77
2023/12/05 02:52:33;;;;;;;1.83;1.53;;;;;;;;;;4959749;28;91993;-76
2023/12/05 02:55:02;;;;;;;3.20;1.53;;;;;;;;;;4974009;28;94060;-80
2023/12/05 02:57:30;;;;;;;2.60;2.13;;;;;;;;;;4985641;28;93005;-81
2023/12/05 03:00:04;;;;;;;2.60;2.10;;;;;;;;;;4996035;28;91470;-81
2023/12/05 03:02:32;;;;;;;2.00;1.53;;;;;;;;;;4996369;28;91404;-80
2023/12/05 03:05:00;;;;;;;2.63;1.83;;;;;;;;;;5003400;28;93458;-80
2023/12/05 03:07:29;;;;;;;3.67;1.87;;;;;;;;;;5016398;28;92733;-79
2023/12/05 03:09:58;;;;;;;1.43;1.23;;;;;;;;;;4999706;28;92638;-80
2023/12/05 03:12:26;;;;;;;2.33;1.80;;;;;;;;;;4983760;28;92329;-81
2023/12/05 03:14:55;;;;;;;3.73;1.80;;;;;;;;;;4984384;28;95211;-79
2023/12/05 03:17:28;;;;;;;2.03;1.40;;;;;;;;;;4980345;28;94773;-77
2023/12/05 03:19:57;;;;;;;3.47;1.67;;;;;;;;;;4979796;28;91877;-77
2023/12/05 03:22:26;;;;;;;2.07;1.70;;;;;;;;;;4999191;28;92167;-80
2023/12/05 03:24:57;;;;;;;2.20;1.77;;;;;;;;;;4999964;28;94175;-80
2023/12/05 03:27:26;;;;;;;2.33;1.50;;;;;;;;;;4999865;28;93761;-78
2023/12/05 03:29:55;;;;;;;1.47;1.37;;;;;;;;;;4999858;28;91902;-74
2023/12/05 03:32:27;;;;;;;2.37;1.80;;;;;;;;;;4983274;28;91340;-75
2023/12/05 03:34:56;;;;;;;1.93;1.60;;;;;;;;;;4975783;28;95038;-79
2023/12/05 03:37:25;;;;;;;2.03;1.80;;;;;;;;;;4960627;28;93865;-80
2023/12/05 03:39:55;;;;;;;1.83;1.50;;;;;;;;;;4960444;28;94820;-80
2023/12/05 03:42:24;;;;;;;1.63;1.50;;;;;;;;;;4966879;28;92707;-77
2023/12/05 03:44:54;;;;;;;2.97;1.37;;;;;;;;;;4956999;28;94197;-76
2023/12/05 03:47:25;;;;;;;2.13;1.60;;;;;;;;;;4956919;28;93854;-77
2023/12/05 03:49:56;;;;;;;1.90;1.67;;;;;;;;;;4972521;28;92086;-76
2023/12/05 03:52:27;;;;;;;2.53;1.63;;;;;;;;;;4976631;28;92092;-79
2023/12/05 03:54:57;;;;;;;2.20;1.17;;;;;;;;;;4977053;28;94066;-77
2023/12/05 03:57:29;;;;;;;1.60;1.50;;;;;;;;;;4977418;28;94159;-77
2023/12/05 03:59:57;;;;;;;1.13;1.00;;;;;;;;;;4958596;28;93591;-77
2023/12/05 04:02:26;;;;;;;1.40;1.23;;;;;;;;;;4965364;28;92018;-77
2023/12/05 04:04:59;;;;;;;2.07;1.30;;;;;;;;;;4978426;28;95047;-77
2023/12/05 04:07:27;;;;;;;2.50;1.47;;;;;;;;;;4988694;28;93710;-78
2023/12/05 04:09:56;;;;;;;1.30;1.17;;;;;;;;;;4977303;28;92013;-77
2023/12/05 04:12:25;;;;;;;2.33;1.90;;;;;;;;;;4975434;28;92275;-77
2023/12/05 04:14:55;;;;;;;1.63;1.53;;;;;;;;;;4976206;28;94008;-77
2023/12/05 04:17:24;;;;;;;2.63;1.80;;;;;;;;;;4975635;28;93868;-75
2023/12/05 04:19:53;;;;;;;1.60;1.23;;;;;;;;;;4976546;28;92215;-75
2023/12/05 04:22:25;;;;;;;2.00;1.40;;;;;;;;;;4975946;28;91344;-74
2023/12/05 04:24:54;;;;;;;2.03;1.40;;;;;;;;;;4973919;28;94073;-74
2023/12/05 04:27:23;;;;;;;1.10;1.00;;;;;;;;;;4961837;28;93892;-74
2023/12/05 04:29:53;;;;;;;1.30;1.23;;;;;;;;;;4966869;28;93005;-73
2023/12/05 04:32:21;;;;;;;1.43;1.27;;;;;;;;;;4961839;28;92090;-75
2023/12/05 04:34:50;;;;;;;1.77;1.33;;;;;;;;;;4983562;28;94298;-76
2023/12/05 04:37:21;;;;;;;1.60;1.33;;;;;;;;;;4984773;28;93835;-76
2023/12/05 04:39:51;;;;;;;1.87;1.40;;;;;;;;;;4985374;28;92241;-76
2023/12/05 04:42:23;;;;;;;1.70;1.37;;;;;;;;;;4973500;28;91997;-76
2023/12/05 04:44:52;;;;;;;2.17;1.60;;;;;;;;;;4990749;28;94327;-77
2023/12/05 04:47:20;;;;;;;2.80;1.50;;;;;;;;;;4984093;28;94170;-76
2023/12/05 04:49:49;;;;;;;1.67;1.40;;;;;;;;;;4984541;28;92065;-77
2023/12/05 04:52:21;;;;;;;3.13;1.60;;;;;;;;;;4976287;28;91981;-76
2023/12/05 04:54:50;;;;;;;3.30;2.23;;;;;;;;;;4983002;28;93511;-76
2023/12/05 04:57:19;;;;;;;5.90;1.57;;;;;;;;;;4983535;28;94778;-75
2023/12/05 04:59:47;;;;;;;2.17;1.97;;;;;;;;;;4985848;28;92036;-76
2023/12/05 05:02:16;;;;;;;1.97;1.60;;;;;;;;;;4984639;28;92242;-76
2023/12/05 05:04:45;;;;;;;2.30;1.80;;;;;;;;;;4978975;28;94352;-79
2023/12/05 05:07:14;;;;;;;2.10;1.80;;;;;;;;;;4981875;28;93920;-77
2023/12/05 05:09:42;;;;;;;2.37;1.23;;;;;;;;;;4973274;28;92124;-78
2023/12/05 05:12:14;;;;;;;1.63;1.50;;;;;;;;;;4987167;28;91374;-77
2023/12/05 05:14:43;;;;;;;2.43;1.73;;;;;;;;;;4984491;28;92182;-75
2023/12/05 05:17:11;;;;;;;2.23;2.00;;;;;;;;;;4986975;28;92741;-73
2023/12/05 05:19:40;;;;;;;3.03;1.87;;;;;;;;;;4985790;28;92869;-75
2023/12/05 05:22:08;;;;;;;3.27;2.10;;;;;;;;;;4980120;28;92089;-75
2023/12/05 05:24:38;;;;;;;2.27;2.07;;;;;;;;;;4991209;28;94259;-75
2023/12/05 05:27:06;;;;;;;2.47;1.70;;;;;;;;;;4986593;28;93814;-74
2023/12/05 05:29:36;;;;;;;1.80;1.60;;;;;;;;;;4975435;28;91945;-75
2023/12/05 05:32:07;;;;;;;2.03;1.80;;;;;;;;;;4985983;28;93717;-75
2023/12/05 05:34:35;;;;;;;5.20;1.80;;;;;;;;;;4986855;28;94977;-74
2023/12/05 05:37:04;;;;;;;1.20;1.00;;;;;;;;;;4990165;28;92379;-76
2023/12/05 05:39:32;;;;;;;2.17;1.73;;;;;;;;;;4984876;28;92080;-78
2023/12/05 05:42:02;;;;;;;1.97;1.50;;;;;;;;;;4986927;28;92099;-78
2023/12/05 05:44:31;;;;;;;1.83;1.63;;;;;;;;;;4988043;28;94929;-78
2023/12/05 05:47:00;;;;;;;4.10;2.43;;;;;;;;;;4986879;28;94684;-78
2023/12/05 05:49:29;;;;;;;1.93;1.80;;;;;;;;;;4987850;28;92473;-78
2023/12/05 05:51:58;;;;;;;3.47;2.47;;;;;;;;;;4984414;28;92144;-78
2023/12/05 05:54:27;;;;;;;2.47;1.97;;;;;;;;;;4979305;28;95415;-77
2023/12/05 05:56:55;;;;;;;3.20;2.23;;;;;;;;;;4987644;28;93838;-77
2023/12/05 05:59:24;;;;;;;2.33;1.90;;;;;;;;;;4977641;28;93993;-78
2023/12/05 06:01:52;;;;;;;4.03;2.53;;;;;;;;;;4980014;28;92455;-77
2023/12/05 06:04:24;;;;;;;2.90;2.50;;;;;;;;;;4979308;28;92949;-72
2023/12/05 06:06:53;;;;;;;3.93;3.10;;;;;;;;;;4979647;28;93750;-74
2023/12/05 06:09:23;;;;;;;2.50;2.30;;;;;;;;;;4985113;28;93109;-74
2023/12/05 06:11:57;;;;;;;3.00;2.70;;;;;;;;;;4987579;28;91992;-72
2023/12/05 06:14:26;;;;;;;5.13;3.13;;;;;;;;;;4979998;28;93957;-73
2023/12/05 06:16:54;;;;;;;2.83;2.20;;;;;;;;;;4981560;28;94131;-73
2023/12/05 06:19:24;;;;;;;5.67;3.80;;;;;;;;;;4980935;28;91871;-74
2023/12/05 06:21:52;;;;;;;3.93;3.07;;;;;;;;;;4980403;28;92061;-74
2023/12/05 06:24:21;;;;;;;4.10;3.07;;;;;;;;;;4983753;28;92929;-76
2023/12/05 06:26:50;;;;;;;4.03;3.03;;;;;;;;;;4974168;28;93811;-73
2023/12/05 06:29:18;;;;;;;4.70;3.30;;;;;;;;;;4978999;28;92048;-75
2023/12/05 06:31:47;;;;;;;4.10;3.10;;;;;;;;;;4988000;28;92104;-74
2023/12/05 06:34:15;;;;;;;5.23;2.83;;;;;;;;;;4983261;28;95145;-79
2023/12/05 06:36:45;;;;;;;4.83;3.67;;;;;;;;;;4983566;28;93536;-77
2023/12/05 06:39:14;;;;;;;4.83;2.70;;;;;;;;;;4991822;28;92115;-74
2023/12/05 06:41:42;;;;;;;4.30;2.93;;;;;;;;;;4988465;28;92091;-76
2023/12/05 06:44:12;;;;;;;5.57;3.13;;;;;;;;;;4998179;28;93668;-74
2023/12/05 06:46:41;;;;;;;6.27;3.17;;;;;;;;;;5005445;28;92710;-76
2023/12/05 06:49:13;;;;;;;5.47;4.63;;;;;;;;;;5004953;28;91951;-80
2023/12/05 06:51:43;;;;;;;5.40;3.40;;;;;;;;;;4999857;28;91431;-80
2023/12/05 06:54:13;;;;;;;4.27;3.33;;;;;;;;;;4991139;28;94391;-79
2023/12/05 06:56:42;;;;;;;7.57;3.87;;;;;;;;;;4986236;28;94170;-78
2023/12/05 06:59:11;;;;;;;4.87;3.57;;;;;;;;;;4989860;28;94010;-81
2023/12/05 07:01:40;;;;;;;3.77;3.20;;;;;;;;;;4991646;28;92059;-80
2023/12/05 07:04:08;;;;;;;4.53;3.10;;;;;;;;;;4984358;28;93342;-81
2023/12/05 07:06:37;;;;;;;4.23;3.00;;;;;;;;;;4985892;28;94201;-75
2023/12/05 07:09:06;;;;;;;3.73;3.03;;;;;;;;;;4990738;28;92129;-82
2023/12/05 07:11:36;;;;;;;4.90;3.37;;;;;;;;;;4994340;28;92152;-83
2023/12/05 07:14:04;;;;;;;4.77;2.80;;;;;;;;;;4988106;28;96928;-83
2023/12/05 07:16:34;;;;;;;5.17;3.10;;;;;;;;;;4987944;28;93841;-76
2023/12/05 07:19:04;;;;;;;5.83;3.33;;;;;;;;;;4984846;28;92039;-76
2023/12/05 07:21:32;;;;;;;8.13;4.20;;;;;;;;;;4987877;28;92154;-77
2023/12/05 07:24:02;;;;;;;5.63;3.40;;;;;;;;;;4984077;28;95119;-78
2023/12/05 07:26:30;;;;;;;5.80;3.93;;;;;;;;;;4982653;28;93647;-73
2023/12/05 07:29:00;;;;;;;4.97;3.47;;;;;;;;;;4975800;28;92174;-75
2023/12/05 07:31:29;;;;;;;5.10;2.90;;;;;;;;;;4976391;28;92121;-76
2023/12/05 07:33:59;;;;;;;3.83;2.90;;;;;;;;;;4981780;28;94202;-79
2023/12/05 07:36:28;;;;;;;5.10;3.13;;;;;;;;;;4973122;28;93964;-77
2023/12/05 07:38:58;;;;;;;3.73;2.93;;;;;;;;;;4976271;28;92861;-77
2023/12/05 07:41:27;;;;;;;3.40;2.60;;;;;;;;;;4971295;28;91455;-72
2023/12/05 07:43:56;;;;;;;6.43;3.60;;;;;;;;;;4975614;28;93350;-73
2023/12/05 07:46:30;;;;;;;3.03;2.60;;;;;;;;;;4982141;28;93767;-74
2023/12/05 07:48:59;;;;;;;3.97;2.87;;;;;;;;;;4964285;28;93008;-74
2023/12/05 07:51:31;;;;;;;7.10;3.57;;;;;;;;;;4973217;28;92247;-74
2023/12/05 07:54:01;;;;;;;4.73;3.23;;;;;;;;;;4974414;28;93903;-75
2023/12/05 07:56:29;;;;;;;4.97;2.77;;;;;;;;;;4966990;28;93797;-73
2023/12/05 07:58:58;;;;;;;4.60;3.33;;;;;;;;;;4971031;28;92113;-74
2023/12/05 08:01:28;;;;;;;4.87;2.67;;;;;;;;;;4968968;28;92158;-76
2023/12/05 08:03:57;;;;;;;11.23;2.87;;;;;;;;;;4973398;28;94174;-72
2023/12/05 08:06:26;;;;;;;5.47;3.10;;;;;;;;;;4967463;28;94008;-71
2023/12/05 08:08:59;;;;;;;6.60;3.40;;;;;;;;;;4972564;28;93890;-72
2023/12/05 08:11:28;;;;;;;5.93;3.00;;;;;;;;;;4974826;28;92027;-71
2023/12/05 08:13:58;;;;;;;3.37;2.37;;;;;;;;;;4976392;28;95111;-71
2023/12/05 08:16:27;;;;;;;2.70;2.20;;;;;;;;;;4973061;28;94773;-72
2023/12/05 08:18:56;;;;;;;3.27;2.50;;;;;;;;;;4978939;28;92006;-72
2023/12/05 08:21:25;;;;;;;6.90;2.67;;;;;;;;;;4977159;28;92118;-72
2023/12/05 08:23:55;;;;;;;4.00;2.47;;;;;;;;;;4982689;28;94142;-72
2023/12/05 08:26:23;;;;;;;5.63;2.87;;;;;;;;;;4973782;28;93646;-73
2023/12/05 08:28:51;;;;;;;7.13;3.60;;;;;;;;;;4983197;28;93078;-72
2023/12/05 08:31:21;;;;;;;4.93;2.90;;;;;;;;;;4979721;28;91703;-72
2023/12/05 08:33:52;;;;;;;3.70;2.30;;;;;;;;;;4981378;28;93663;-72
2023/12/05 08:36:23;;;;;;;3.67;2.60;;;;;;;;;;4976242;28;92490;-72
2023/12/05 08:38:54;;;;;;;3.10;2.60;;;;;;;;;;4979730;28;93337;-72
2023/12/05 08:41:22;;;;;;;4.33;3.17;;;;;;;;;;4986377;28;91985;-72
2023/12/05 08:43:54;;;;;;;4.17;3.13;;;;;;;;;;4986203;28;94134;-72
2023/12/05 08:46:22;;;;;;;6.50;3.47;;;;;;;;;;4977074;28;93760;-72
2023/12/05 08:48:52;;;;;;;4.87;3.30;;;;;;;;;;4985307;28;93368;-72
2023/12/05 08:51:23;;;;;;;6.23;3.23;;;;;;;;;;4978209;28;92077;-72
2023/12/05 08:53:51;;;;;;;6.77;3.33;;;;;;;;;;4975637;28;94237;-72
2023/12/05 08:56:23;;;;;;;4.40;3.30;;;;;;;;;;4985564;28;93659;-72
2023/12/05 08:58:51;;;;;;;4.50;3.17;;;;;;;;;;4988617;28;92082;-72
2023/12/05 09:01:25;;;;;;;3.83;2.80;;;;;;;;;;4989613;28;91933;-72
2023/12/05 09:03:55;;;;;;;5.33;3.30;;;;;;;;;;4983763;28;95109;-72
2023/12/05 09:06:24;;;;;;;4.87;3.17;;;;;;;;;;4984202;28;94800;-72
2023/12/05 09:08:54;;;;;;;4.57;3.43;;;;;;;;;;4994318;28;92011;-72
2023/12/05 09:11:26;;;;;;;6.33;3.20;;;;;;;;;;4993257;28;92152;-73
2023/12/05 09:13:58;;;;;;;5.23;3.27;;;;;;;;;;4992808;28;94130;-71
2023/12/05 09:16:26;;;;;;;4.60;2.80;;;;;;;;;;4990989;28;93905;-71
2023/12/05 09:18:57;;;;;;;6.83;3.40;;;;;;;;;;4981916;28;92015;-71
2023/12/05 09:21:26;;;;;;;4.53;3.30;;;;;;;;;;4977673;28;91834;-71
2023/12/05 09:23:54;;;;;;;6.43;3.03;;;;;;;;;;4986661;28;94672;-71
2023/12/05 09:26:27;;;;;;;7.53;3.30;;;;;;;;;;4996973;28;93959;-73
2023/12/05 09:28:55;;;;;;;6.67;3.73;;;;;;;;;;4990911;28;93056;-72
2023/12/05 09:31:24;;;;;;;4.07;2.97;;;;;;;;;;4990182;28;92034;-73
2023/12/05 09:33:53;;;;;;;6.17;2.90;;;;;;;;;;4992824;28;92910;-77
2023/12/05 09:36:23;;;;;;;3.93;2.63;;;;;;;;;;4980304;28;93886;-74
2023/12/05 09:38:53;;;;;;;5.83;3.27;;;;;;;;;;4991969;28;92058;-74
2023/12/05 09:41:24;;;;;;;4.67;3.20;;;;;;;;;;4991481;28;92093;-74
2023/12/05 09:43:52;;;;;;;5.87;3.43;;;;;;;;;;4990494;28;94180;-69
2023/12/05 09:46:21;;;;;;;3.70;2.87;;;;;;;;;;4992582;28;92752;-72
2023/12/05 09:48:54;;;;;;;4.73;2.83;;;;;;;;;;4980876;28;92161;-74
2023/12/05 09:51:24;;;;;;;4.30;3.20;;;;;;;;;;4989597;28;92106;-75
2023/12/05 09:53:53;;;;;;;3.97;2.63;;;;;;;;;;4989901;28;95067;-75
2023/12/05 09:56:24;;;;;;;4.30;2.97;;;;;;;;;;4990753;28;94728;-75
2023/12/05 09:58:52;;;;;;;3.63;2.50;;;;;;;;;;4990321;28;92341;-75
2023/12/05 10:01:22;;;;;;;5.20;3.10;;;;;;;;;;4992982;28;92119;-74
2023/12/05 10:03:59;;;;;;;4.20;2.93;;;;;;;;;;4996634;28;94187;-75
2023/12/05 10:06:30;;;;;;;4.10;2.70;;;;;;;;;;4987139;28;92885;-74
2023/12/05 10:08:58;;;;;;;2.73;2.43;;;;;;;;;;4990465;28;92105;-74
2023/12/05 10:11:28;;;;;;;5.73;2.63;;;;;;;;;;4992127;28;91133;-74
2023/12/05 10:13:57;;;;;;;3.20;2.53;;;;;;;;;;4987955;28;94242;-74
2023/12/05 10:16:26;;;;;;;2.97;2.63;;;;;;;;;;4990461;28;93896;-74
2023/12/05 10:18:54;;;;;;;5.77;3.13;;;;;;;;;;4982483;28;93779;-75
2023/12/05 10:21:23;;;;;;;3.97;3.17;;;;;;;;;;4990284;28;92152;-74
2023/12/05 10:23:53;;;;;;;3.97;2.40;;;;;;;;;;4982488;28;94178;-75
2023/12/05 10:26:21;;;;;;;6.20;3.07;;;;;;;;;;4983470;28;94047;-75
2023/12/05 10:28:51;;;;;;;3.97;3.30;;;;;;;;;;4988945;28;92061;-75
2023/12/05 10:31:19;;;;;;;5.50;3.73;;;;;;;;;;4980210;28;92135;-75
2023/12/05 10:33:49;;;;;;;6.37;3.47;;;;;;;;;;4988217;28;94214;-75
2023/12/05 10:36:18;;;;;;;4.53;3.50;;;;;;;;;;4998086;28;93922;-75
2023/12/05 10:38:47;;;;;;;5.40;3.83;;;;;;;;;;4984570;28;91981;-76
2023/12/05 10:41:22;;;;;;;6.77;4.33;;;;;;;;;;4993331;28;92092;-75
2023/12/05 10:43:55;;;;;;;4.73;3.97;;;;;;;;;;4979315;28;95106;-75
2023/12/05 10:46:26;;;;;;;5.70;3.93;;;;;;;;;;4995242;28;94856;-75
2023/12/05 10:48:54;;;;;;;6.03;3.80;;;;;;;;;;4985790;28;93100;-75
2023/12/05 10:51:25;;;;;;;7.80;4.10;;;;;;;;;;4986092;28;92033;-75
2023/12/05 10:53:55;;;;;;;6.80;4.10;;;;;;;;;;4998411;28;92016;-75
2023/12/05 10:56:26;;;;;;;8.17;4.40;;;;;;;;;;4992799;28;94466;-76
2023/12/05 10:58:54;;;;;;;5.73;4.40;;;;;;;;;;4995941;28;92054;-75
2023/12/05 11:01:24;;;;;;;6.20;4.57;;;;;;;;;;4997412;28;91466;-74
2023/12/05 11:03:55;;;;;;;10.40;3.83;;;;;;;;;;4998833;28;94004;-75
2023/12/05 11:06:25;;;;;;;9.03;4.70;;;;;;;;;;4993308;28;94190;-76
2023/12/05 11:08:54;;;;;;;6.13;3.87;;;;;;;;;;5001991;28;92910;-75
2023/12/05 11:11:23;;;;;;;8.20;4.07;;;;;;;;;;5002783;28;92162;-75
2023/12/05 11:13:53;;;;;;;8.20;5.37;;;;;;;;;;5000738;28;94196;-75
2023/12/05 11:16:22;;;;;;;5.50;4.07;;;;;;;;;;4998736;28;93821;-75
2023/12/05 11:18:51;;;;;;;4.73;3.97;;;;;;;;;;5004677;28;92083;-75
2023/12/05 11:21:25;;;;;;;8.27;4.47;;;;;;;;;;4997931;28;92034;-75
2023/12/05 11:24:03;;;;;;;10.43;5.27;;;;;;;;;;5000459;28;93117;-75
2023/12/05 11:26:41;;;;;;;6.80;4.90;;;;;;;;;;5002975;28;93950;-75
2023/12/05 11:29:19;;;;;;;5.93;3.93;;;;;;;;;;4998626;28;92104;-75
2023/12/05 11:31:53;;;;;;;5.80;4.27;;;;;;;;;;4998105;28;92054;-75
2023/12/05 11:34:37;;;;;;;7.47;4.10;;;;;;;;;;4988980;28;95151;-75
2023/12/05 11:37:12;;;;;;;8.47;5.40;;;;;;;;;;4983468;28;94812;-75
2023/12/05 11:39:41;;;;;;;8.70;4.90;;;;;;;;;;4958123;28;92020;-74
2023/12/05 11:42:09;;;;;;;5.73;4.50;;;;;;;;;;4978811;28;92160;-74
2023/12/05 11:44:39;;;;;;;7.43;4.73;;;;;;;;;;4986032;28;94198;-75
2023/12/05 11:47:12;;;;;;;9.90;4.53;;;;;;;;;;4986101;28;93907;-75
2023/12/05 11:49:40;;;;;;;6.90;5.20;;;;;;;;;;4988570;28;92038;-76
2023/12/05 11:52:10;;;;;;;29.63;8.97;;;;;;;;;;4988687;28;91450;-75
2023/12/05 11:54:42;;;;;;;78.13;30.90;;;;;;;;;;4987576;28;95325;-75
2023/12/05 11:57:15;;;;;;;493.93;260.77;;;;;;;;;;4986524;28;93764;-76
2023/12/05 11:59:46;;;;;;;665.23;394.00;;;;;;;;;;4986303;28;93018;-76
2023/12/05 12:02:14;;;;;;;595.07;338.43;;;;;;;;;;4984380;28;92119;-76
2023/12/05 12:04:43;;;;;;;500.23;275.77;;;;;;;;;;4988902;28;94169;-77
2023/12/05 12:07:12;;;;;;;439.93;222.80;;;;;;;;;;4983955;28;94058;-77
2023/12/05 12:09:40;;;;;;;353.67;183.20;;;;;;;;;;4989129;28;92027;-77
2023/12/05 12:12:09;;;;;;;315.90;157.50;;;;;;;;;;4982735;28;92238;-76
2023/12/05 12:14:39;;;;;;;286.00;138.87;;;;;;;;;;4986017;28;94211;-77
2023/12/05 12:17:11;;;;;;;229.17;120.13;;;;;;;;;;4984298;28;94132;-76
2023/12/05 12:19:40;;;;;;;236.73;117.97;;;;;;;;;;4985740;28;92025;-76
2023/12/05 12:22:09;;;;;;;192.83;105.27;;;;;;;;;;4988165;28;92187;-76
2023/12/05 12:24:40;;;;;;;189.83;96.30;;;;;;;;;;4982317;28;95198;-75
2023/12/05 12:27:09;;;;;;;115.47;59.80;;;;;;;;;;4986069;28;94922;-76
2023/12/05 12:29:37;;;;;;;110.43;61.97;;;;;;;;;;4984417;28;92178;-75
2023/12/05 12:32:08;;;;;;;119.90;59.93;;;;;;;;;;4985144;28;91993;-73
2023/12/05 12:34:38;;;;;;;113.70;58.53;;;;;;;;;;4971152;28;95943;-74
2023/12/05 12:37:07;;;;;;;111.70;56.53;;;;;;;;;;4969734;28;93758;-74
2023/12/05 12:39:49;;;;;;;89.70;50.27;;;;;;;;;;4966844;28;92201;-74
2023/12/05 12:42:18;;;;;;;92.63;48.67;;;;;;;;;;4976609;28;92169;-74
2023/12/05 12:44:46;;;;;;;90.10;49.30;;;;;;;;;;4968657;28;94188;-74
2023/12/05 12:47:15;;;;;;;73.93;40.37;;;;;;;;;;4985515;28;93587;-73
2023/12/05 12:49:45;;;;;;;68.90;40.60;;;;;;;;;;4980773;28;93295;-74
2023/12/05 12:52:14;;;;;;;76.60;40.17;;;;;;;;;;4971937;28;91873;-75
2023/12/05 12:54:43;;;;;;;66.60;38.27;;;;;;;;;;4965573;28;92847;-75
2023/12/05 12:57:12;;;;;;;80.30;39.13;;;;;;;;;;4978722;28;94021;-75
2023/12/05 12:59:44;;;;;;;65.93;34.80;;;;;;;;;;4980159;28;91870;-74
2023/12/05 13:02:34;;;;;;;55.73;31.57;;;;;;;;;;4985678;28;92084;-75
2023/12/05 13:05:04;;;;;;;56.37;31.77;;;;;;;;;;4985628;28;94325;-75
2023/12/05 13:07:32;;;;;;;54.17;30.60;;;;;;;;;;4991026;28;93992;-75
2023/12/05 13:10:01;;;;;;;45.73;27.10;;;;;;;;;;4992127;28;92018;-75
2023/12/05 13:12:30;;;;;;;49.70;27.83;;;;;;;;;;4977752;28;92070;-75
2023/12/05 13:14:58;;;;;;;48.47;26.40;;;;;;;;;;4979356;28;95092;-75
2023/12/05 13:17:27;;;;;;;43.57;26.13;;;;;;;;;;4981902;28;94843;-75
2023/12/05 13:20:05;;;;;;;33.67;23.27;;;;;;;;;;4980156;28;91998;-74
2023/12/05 13:22:35;;;;;;;48.43;23.20;;;;;;;;;;4970406;28;92022;-74
2023/12/05 13:25:04;;;;;;;41.50;22.30;;;;;;;;;;4979049;28;94223;-75
2023/12/05 13:27:36;;;;;;;32.40;18.93;;;;;;;;;;4981735;28;94054;-74
2023/12/05 13:30:04;;;;;;;37.53;20.60;;;;;;;;;;4984942;28;92103;-74
2023/12/05 13:32:33;;;;;;;29.20;19.07;;;;;;;;;;4991451;28;91686;-74
2023/12/05 13:35:01;;;;;;;30.77;19.27;;;;;;;;;;4976882;28;94138;-74
2023/12/05 13:37:31;;;;;;;31.33;18.70;;;;;;;;;;4988492;28;93936;-74
2023/12/05 13:40:00;;;;;;;31.53;18.40;;;;;;;;;;4987585;28;92883;-74
2023/12/05 13:42:29;;;;;;;28.60;18.40;;;;;;;;;;4975184;28;92320;-73
2023/12/05 13:44:57;;;;;;;27.07;17.43;;;;;;;;;;4992980;28;94146;-72
2023/12/05 13:47:25;;;;;;;27.03;14.93;;;;;;;;;;4995751;28;93803;-74
2023/12/05 13:49:54;;;;;;;31.50;16.67;;;;;;;;;;4997101;28;92119;-74
2023/12/05 13:52:23;;;;;;;28.53;14.83;;;;;;;;;;4986854;28;92111;-74
2023/12/05 13:54:53;;;;;;;25.77;14.20;;;;;;;;;;4983102;28;94191;-75
2023/12/05 13:57:22;;;;;;;22.33;12.80;;;;;;;;;;4991984;28;94422;-73
2023/12/05 13:59:52;;;;;;;24.03;13.77;;;;;;;;;;4994322;28;92017;-75
2023/12/05 14:02:22;;;;;;;21.90;13.63;;;;;;;;;;4991956;28;92077;-73
2023/12/05 14:04:50;;;;;;;20.27;12.07;;;;;;;;;;4998875;28;95220;-76
2023/12/05 14:07:20;;;;;;;22.50;12.60;;;;;;;;;;5000307;28;95033;-75
2023/12/05 14:09:48;;;;;;;16.30;11.57;;;;;;;;;;4995798;28;92200;-74
2023/12/05 14:12:18;;;;;;;23.60;11.90;;;;;;;;;;4995069;28;93063;-69
2023/12/05 14:14:47;;;;;;;18.67;9.47;;;;;;;;;;4987755;28;94251;-71
2023/12/05 14:17:17;;;;;;;20.13;11.60;;;;;;;;;;4989594;28;93918;-68
2023/12/05 14:19:46;;;;;;;15.67;10.30;;;;;;;;;;4984575;28;92097;-69
2023/12/05 14:22:16;;;;;;;15.87;10.77;;;;;;;;;;4986215;28;91209;-69
2023/12/05 14:24:45;;;;;;;13.00;9.87;;;;;;;;;;4988630;28;94287;-69
2023/12/05 14:27:14;;;;;;;11.93;8.93;;;;;;;;;;4977125;28;94326;-69
2023/12/05 14:29:43;;;;;;;12.70;9.13;;;;;;;;;;4993530;28;92879;-69
2023/12/05 14:32:13;;;;;;;13.37;8.00;;;;;;;;;;4995496;28;92248;-69
2023/12/05 14:34:43;;;;;;;13.90;8.73;;;;;;;;;;4991623;28;94425;-69
2023/12/05 14:37:12;;;;;;;14.57;8.67;;;;;;;;;;4973976;28;94364;-69
2023/12/05 14:39:43;;;;;;;14.20;6.13;;;;;;;;;;4986382;28;92024;-68
2023/12/05 14:42:12;;;;;;;8.00;5.77;;;;;;;;;;4995566;28;92115;-69
2023/12/05 14:44:40;;;;;;;11.13;7.37;;;;;;;;;;4990756;28;94184;-69
2023/12/05 14:47:10;;;;;;;14.53;6.57;;;;;;;;;;4989517;28;94056;-69
2023/12/05 14:49:40;;;;;;;14.00;7.60;;;;;;;;;;4976050;28;91930;-69
2023/12/05 14:52:09;;;;;;;11.63;7.23;;;;;;;;;;4993915;28;92083;-69